createdAt,value
2022-12-06T00:01:38.197Z,26.60
2022-12-06T00:04:12.970Z,26.60
2022-12-06T00:06:46.169Z,26.70
2022-12-06T00:09:22.603Z,26.90
2022-12-06T00:11:51.182Z,26.90
2022-12-06T00:14:20.764Z,26.60
2022-12-06T00:16:49.637Z,26.50
2022-12-06T00:19:21.311Z,26.50
2022-12-06T00:21:50.002Z,26.60
2022-12-06T00:24:22.096Z,26.70
2022-12-06T00:26:51.849Z,26.80
2022-12-06T00:29:23.293Z,26.60
2022-12-06T00:31:52.755Z,26.50
2022-12-06T00:34:23.142Z,26.40
2022-12-06T00:36:53.246Z,26.50
2022-12-06T00:39:23.223Z,26.60
2022-12-06T00:41:52.427Z,26.70
2022-12-06T00:44:21.098Z,26.70
2022-12-06T00:46:49.559Z,26.60
2022-12-06T00:49:17.914Z,26.50
2022-12-06T00:51:46.567Z,26.60
2022-12-06T00:54:16.094Z,26.80
2022-12-06T00:56:44.509Z,26.90
2022-12-06T00:59:12.992Z,26.90
2022-12-06T01:01:42.585Z,26.60
2022-12-06T01:04:11.265Z,26.50
2022-12-06T01:06:39.886Z,26.30
2022-12-06T01:09:12.638Z,26.60
2022-12-06T01:11:41.102Z,26.70
2022-12-06T01:14:09.757Z,26.90
2022-12-06T01:16:39.054Z,26.60
2022-12-06T01:19:07.561Z,26.40
2022-12-06T01:21:35.991Z,26.30
2022-12-06T01:24:04.434Z,26.30
2022-12-06T01:26:35.503Z,26.50
2022-12-06T01:29:04.650Z,26.60
2022-12-06T01:31:38.159Z,26.60
2022-12-06T01:34:16.530Z,26.30
2022-12-06T01:36:45.623Z,26.20
2022-12-06T01:39:13.957Z,26.10
2022-12-06T01:41:42.297Z,26.30
2022-12-06T01:44:42.642Z,26.30
2022-12-06T01:47:23.043Z,26.40
2022-12-06T01:50:00.770Z,26.20
2022-12-06T01:52:51.978Z,26.10
2022-12-06T01:55:23.044Z,26.00
2022-12-06T01:57:54.476Z,26.20
2022-12-06T02:00:23.172Z,26.30
2022-12-06T02:02:52.460Z,26.40
2022-12-06T02:05:21.849Z,26.20
2022-12-06T02:07:51.028Z,26.00
2022-12-06T02:10:22.014Z,26.00
2022-12-06T02:12:55.419Z,26.10
2022-12-06T02:15:51.037Z,26.30
2022-12-06T02:18:30.411Z,26.30
2022-12-06T02:21:03.530Z,26.20
2022-12-06T02:23:40.748Z,26.10
2022-12-06T02:26:27.471Z,25.90
2022-12-06T02:29:26.534Z,26.10
2022-12-06T02:32:10.190Z,26.20
2022-12-06T02:34:45.979Z,26.20
2022-12-06T02:37:25.317Z,26.00
2022-12-06T02:40:01.584Z,25.90
2022-12-06T02:42:37.136Z,25.80
2022-12-06T02:45:14.877Z,25.90
2022-12-06T02:47:44.187Z,26.10
2022-12-06T02:50:18.034Z,26.00
2022-12-06T02:52:52.877Z,25.80
2022-12-06T02:55:22.853Z,25.70
2022-12-06T02:57:54.362Z,25.70
2022-12-06T03:00:37.682Z,25.90
2022-12-06T03:03:08.824Z,26.10
2022-12-06T03:06:01.823Z,26.20
2022-12-06T03:08:48.814Z,26.00
2022-12-06T03:11:17.696Z,25.90
2022-12-06T03:14:13.355Z,25.80
2022-12-06T03:16:50.898Z,25.90
2022-12-06T03:19:25.311Z,26.00
2022-12-06T03:22:23.096Z,26.10
2022-12-06T03:24:52.428Z,25.80
2022-12-06T03:27:23.178Z,25.70
2022-12-06T03:29:57.755Z,25.50
2022-12-06T03:32:30.190Z,25.60
2022-12-06T03:35:04.449Z,25.80
2022-12-06T03:37:34.864Z,25.80
2022-12-06T03:40:07.313Z,25.70
2022-12-06T03:42:36.314Z,25.50
2022-12-06T03:45:05.754Z,25.40
2022-12-06T03:47:58.513Z,25.50
2022-12-06T03:50:38.802Z,25.60
2022-12-06T03:53:07.335Z,25.50
2022-12-06T03:55:35.846Z,25.50
2022-12-06T03:58:04.256Z,25.30
2022-12-06T04:00:32.592Z,25.20
2022-12-06T04:03:01.091Z,25.00
2022-12-06T04:05:29.306Z,25.20
2022-12-06T04:07:57.775Z,25.50
2022-12-06T04:10:26.059Z,25.30
2022-12-06T04:12:54.591Z,25.20
2022-12-06T04:15:23.890Z,25.10
2022-12-06T04:17:52.218Z,25.00
2022-12-06T04:20:20.512Z,25.10
2022-12-06T04:22:48.899Z,25.20
2022-12-06T04:25:17.165Z,25.40
2022-12-06T04:27:45.530Z,25.30
2022-12-06T04:30:13.838Z,25.20
2022-12-06T04:32:42.185Z,25.00
2022-12-06T04:35:10.560Z,24.80
2022-12-06T04:37:38.715Z,24.90
2022-12-06T04:40:07.783Z,25.10
2022-12-06T04:42:35.982Z,25.20
2022-12-06T04:45:05.417Z,25.10
2022-12-06T04:47:33.699Z,25.00
2022-12-06T04:50:02.485Z,24.90
2022-12-06T04:52:35.679Z,25.00
2022-12-06T04:55:07.025Z,25.30
2022-12-06T04:57:35.710Z,25.40
2022-12-06T05:00:05.649Z,25.20
2022-12-06T05:02:34.090Z,25.00
2022-12-06T05:05:02.614Z,24.80
2022-12-06T05:07:31.388Z,24.90
2022-12-06T05:10:00.189Z,25.10
2022-12-06T05:12:28.735Z,25.00
2022-12-06T05:15:02.998Z,25.00
2022-12-06T05:17:31.465Z,24.90
2022-12-06T05:20:00.079Z,24.90
2022-12-06T05:22:32.787Z,24.90
2022-12-06T05:25:01.369Z,24.80
2022-12-06T05:27:35.675Z,24.80
2022-12-06T05:30:05.599Z,24.90
2022-12-06T05:32:35.273Z,24.90
2022-12-06T05:35:04.397Z,24.80
2022-12-06T05:37:32.790Z,24.80
2022-12-06T05:40:01.570Z,24.80
2022-12-06T05:42:30.336Z,25.10
2022-12-06T05:44:58.746Z,25.30
2022-12-06T05:47:27.303Z,25.00
2022-12-06T05:49:55.647Z,24.90
2022-12-06T05:52:24.372Z,24.80
2022-12-06T05:54:54.037Z,24.70
2022-12-06T05:57:22.563Z,24.90
2022-12-06T05:59:51.141Z,25.00
2022-12-06T06:02:19.734Z,24.90
2022-12-06T06:04:48.435Z,24.70
2022-12-06T06:07:16.705Z,24.60
2022-12-06T06:09:45.048Z,24.60
2022-12-06T06:12:13.601Z,24.70
2022-12-06T06:14:41.771Z,24.70
2022-12-06T06:17:11.826Z,24.80
2022-12-06T06:19:40.530Z,24.70
2022-12-06T06:22:09.033Z,24.50
2022-12-06T06:24:42.579Z,24.40
2022-12-06T06:27:11.703Z,24.40
2022-12-06T06:29:45.104Z,24.60
2022-12-06T06:32:14.076Z,24.70
2022-12-06T06:34:42.863Z,24.70
2022-12-06T06:37:11.321Z,24.50
2022-12-06T06:39:39.671Z,24.50
2022-12-06T06:42:08.134Z,24.40
2022-12-06T06:44:40.402Z,24.40
2022-12-06T06:47:08.884Z,24.60
2022-12-06T06:49:37.751Z,24.70
2022-12-06T06:52:06.252Z,24.70
2022-12-06T06:54:34.654Z,24.50
2022-12-06T06:57:11.545Z,24.50
2022-12-06T06:59:43.083Z,24.50
2022-12-06T07:02:16.349Z,24.40
2022-12-06T07:04:45.633Z,24.60
2022-12-06T07:07:20.602Z,24.80
2022-12-06T07:09:49.536Z,24.60
2022-12-06T07:12:18.308Z,24.50
2022-12-06T07:14:46.684Z,24.50
2022-12-06T07:17:14.963Z,24.50
2022-12-06T07:19:43.297Z,24.70
2022-12-06T07:22:11.637Z,24.90
2022-12-06T07:24:42.820Z,24.90
2022-12-06T07:27:12.233Z,24.80
2022-12-06T07:29:40.563Z,24.80
2022-12-06T07:32:08.736Z,24.80
2022-12-06T07:34:37.433Z,24.90
2022-12-06T07:37:09.344Z,25.20
2022-12-06T07:39:38.179Z,25.30
2022-12-06T07:42:06.931Z,25.30
2022-12-06T07:44:44.167Z,25.10
2022-12-06T07:47:12.890Z,25.10
2022-12-06T07:49:41.459Z,25.20
2022-12-06T07:52:09.827Z,25.30
2022-12-06T07:54:38.411Z,25.60
2022-12-06T07:57:07.023Z,25.70
2022-12-06T07:59:39.304Z,25.50
2022-12-06T08:02:08.652Z,25.30
2022-12-06T08:04:37.191Z,25.40
2022-12-06T08:07:05.968Z,25.50
2022-12-06T08:09:34.778Z,25.70
2022-12-06T08:12:03.247Z,25.90
2022-12-06T08:14:32.754Z,26.00
2022-12-06T08:17:01.910Z,26.00
2022-12-06T08:19:30.435Z,25.80
2022-12-06T08:21:58.876Z,25.70
2022-12-06T08:24:27.366Z,25.70
2022-12-06T08:26:56.066Z,26.00
2022-12-06T08:29:24.582Z,25.90
2022-12-06T08:31:53.071Z,25.70
2022-12-06T08:34:21.641Z,25.60
2022-12-06T08:36:50.543Z,25.80
2022-12-06T08:39:18.895Z,25.80
2022-12-06T08:41:47.359Z,26.10
2022-12-06T08:44:16.973Z,26.50
2022-12-06T08:46:45.833Z,26.90
2022-12-06T08:49:16.183Z,26.90
2022-12-06T08:51:45.894Z,27.00
2022-12-06T08:54:18.185Z,27.20
2022-12-06T08:56:47.180Z,27.20
2022-12-06T08:59:25.854Z,27.20
2022-12-06T09:01:54.246Z,27.50
2022-12-06T09:04:22.782Z,27.50
2022-12-06T09:06:51.689Z,27.50
2022-12-06T09:09:22.094Z,27.60
2022-12-06T09:11:50.964Z,27.50
2022-12-06T09:14:22.188Z,27.60
2022-12-06T09:16:51.763Z,28.00
2022-12-06T09:19:21.035Z,28.20
2022-12-06T09:21:49.604Z,28.40
2022-12-06T09:24:19.152Z,28.30
2022-12-06T09:26:48.146Z,27.80
2022-12-06T09:29:18.146Z,27.60
2022-12-06T09:31:48.836Z,27.80
2022-12-06T09:34:18.132Z,27.70
2022-12-06T09:36:51.670Z,28.30
2022-12-06T09:39:46.781Z,28.50
2022-12-06T09:42:42.988Z,28.60
2022-12-06T09:45:44.887Z,28.60
2022-12-06T09:48:49.262Z,28.90
2022-12-06T09:51:23.552Z,29.30
2022-12-06T09:54:13.652Z,29.50
2022-12-06T09:57:08.170Z,28.80
2022-12-06T09:59:39.369Z,28.70
2022-12-06T10:02:26.225Z,29.10
2022-12-06T10:05:00.595Z,29.40
2022-12-06T10:07:35.921Z,29.70
2022-12-06T10:10:32.525Z,30.00
2022-12-06T10:13:15.176Z,29.70
2022-12-06T10:16:05.379Z,29.70
2022-12-06T10:18:49.182Z,29.70
2022-12-06T10:22:05.541Z,29.70
2022-12-06T10:25:11.840Z,30.20
2022-12-06T10:28:12.735Z,30.50
2022-12-06T10:31:06.444Z,30.30
2022-12-06T10:33:56.000Z,30.30
2022-12-06T10:36:40.242Z,30.20
2022-12-06T10:39:48.650Z,30.40
2022-12-06T10:42:42.788Z,30.50
2022-12-06T10:45:24.794Z,30.60
2022-12-06T10:48:00.364Z,30.50
2022-12-06T10:50:33.864Z,30.60
2022-12-06T10:53:15.997Z,30.70
2022-12-06T10:55:54.270Z,30.60
2022-12-06T10:58:39.765Z,30.80
2022-12-06T11:01:38.275Z,30.90
2022-12-06T11:04:13.788Z,31.00
2022-12-06T11:06:56.313Z,30.90
2022-12-06T11:09:39.974Z,30.80
2022-12-06T11:12:31.003Z,30.80
2022-12-06T11:15:07.925Z,31.30
2022-12-06T11:17:44.078Z,31.70
2022-12-06T11:20:33.719Z,31.70
2022-12-06T11:23:29.360Z,31.30
2022-12-06T11:26:38.721Z,31.20
2022-12-06T11:29:13.233Z,31.00
2022-12-06T11:31:53.553Z,31.00
2022-12-06T11:34:43.105Z,31.10
2022-12-06T11:37:18.333Z,31.50
2022-12-06T11:39:49.775Z,31.30
2022-12-06T11:42:24.704Z,30.90
2022-12-06T11:44:59.221Z,30.80
2022-12-06T11:47:28.237Z,30.60
2022-12-06T11:49:58.664Z,30.70
2022-12-06T11:52:42.306Z,31.00
2022-12-06T11:55:19.155Z,30.90
2022-12-06T11:58:13.968Z,30.60
2022-12-06T12:01:01.248Z,30.50
2022-12-06T12:03:40.753Z,30.60
2022-12-06T12:06:27.076Z,30.70
2022-12-06T12:09:02.669Z,30.70
2022-12-06T12:11:37.975Z,31.10
2022-12-06T12:14:35.588Z,30.80
2022-12-06T12:17:11.982Z,30.60
2022-12-06T12:19:47.377Z,30.40
2022-12-06T12:22:21.529Z,30.90
2022-12-06T12:27:47.305Z,31.10
2022-12-06T12:30:39.251Z,30.70
2022-12-06T12:33:07.936Z,30.80
2022-12-06T12:35:43.746Z,30.80
2022-12-06T12:38:12.051Z,30.70
2022-12-06T12:41:02.351Z,30.40
2022-12-06T12:43:35.098Z,30.90
2022-12-06T12:46:11.766Z,31.10
2022-12-06T12:48:46.885Z,30.80
2022-12-06T12:51:41.447Z,30.60
2022-12-06T12:54:39.282Z,30.30
2022-12-06T12:57:14.794Z,30.50
2022-12-06T12:59:44.456Z,30.70
2022-12-06T13:02:32.465Z,30.80
2022-12-06T13:08:21.868Z,30.80
2022-12-06T13:10:58.813Z,30.80
2022-12-06T13:13:48.303Z,31.00
2022-12-06T13:16:36.968Z,31.00
2022-12-06T13:19:05.514Z,31.30
2022-12-06T13:21:51.656Z,31.10
2022-12-06T13:24:28.344Z,30.90
2022-12-06T13:27:08.015Z,30.80
2022-12-06T13:29:42.900Z,30.90
2022-12-06T13:32:40.700Z,31.20
2022-12-06T13:35:28.793Z,31.30
2022-12-06T13:38:26.804Z,30.90
2022-12-06T13:41:17.532Z,30.40
2022-12-06T13:43:45.851Z,30.50
2022-12-06T13:46:21.980Z,30.60
2022-12-06T13:49:02.338Z,30.90
2022-12-06T13:51:33.983Z,30.80
2022-12-06T13:54:05.314Z,30.50
2022-12-06T13:56:36.801Z,30.60
2022-12-06T13:59:16.411Z,30.40
2022-12-06T14:01:46.043Z,30.50
2022-12-06T14:09:44.612Z,30.80
2022-12-06T14:12:26.772Z,30.60
2022-12-06T14:15:05.351Z,30.60
2022-12-06T14:18:09.491Z,30.60
2022-12-06T14:20:37.856Z,30.80
2022-12-06T14:23:27.077Z,31.00
2022-12-06T14:26:23.800Z,31.10
2022-12-06T14:28:55.587Z,31.20
2022-12-06T14:31:36.508Z,31.30
2022-12-06T14:34:08.146Z,31.20
2022-12-06T14:36:41.373Z,31.10
2022-12-06T14:39:20.926Z,31.20
2022-12-06T14:41:57.485Z,31.20
2022-12-06T14:44:39.855Z,30.90
2022-12-06T14:47:08.638Z,30.50
2022-12-06T14:49:37.158Z,30.60
2022-12-06T14:52:27.462Z,30.80
2022-12-06T14:55:19.210Z,30.80
2022-12-06T14:57:50.856Z,31.10
2022-12-06T15:00:26.960Z,31.30
2022-12-06T15:03:01.135Z,31.00
2022-12-06T15:05:44.013Z,30.60
2022-12-06T15:08:33.983Z,30.60
2022-12-06T15:11:06.717Z,31.00
2022-12-06T15:13:34.981Z,31.10
2022-12-06T15:16:09.162Z,31.10
2022-12-06T15:19:00.812Z,30.70
2022-12-06T15:21:29.786Z,30.30
2022-12-06T15:23:59.649Z,30.20
2022-12-06T15:26:27.877Z,30.50
2022-12-06T15:28:56.113Z,30.90
2022-12-06T15:31:27.309Z,30.80
2022-12-06T15:33:56.404Z,30.70
2022-12-06T15:36:30.593Z,30.40
2022-12-06T15:39:00.534Z,30.20
2022-12-06T15:41:29.640Z,30.10
2022-12-06T15:43:57.965Z,30.40
2022-12-06T15:46:29.751Z,30.50
2022-12-06T15:48:58.304Z,30.50
2022-12-06T15:51:28.066Z,30.70
2022-12-06T15:53:58.413Z,30.30
2022-12-06T15:56:30.060Z,30.00
2022-12-06T15:58:58.538Z,30.10
2022-12-06T16:01:29.512Z,30.20
2022-12-06T16:03:59.005Z,30.20
2022-12-06T16:06:28.611Z,30.40
2022-12-06T16:08:57.578Z,30.30
2022-12-06T16:11:27.750Z,30.10
2022-12-06T16:13:56.487Z,29.90
2022-12-06T16:16:25.123Z,30.00
2022-12-06T16:18:53.763Z,30.20
2022-12-06T16:21:27.417Z,30.40
2022-12-06T16:24:13.483Z,30.40
2022-12-06T16:26:44.216Z,29.80
2022-12-06T16:29:23.814Z,29.70
2022-12-06T16:31:52.514Z,29.50
2022-12-06T16:34:21.137Z,29.80
2022-12-06T16:37:23.060Z,30.20
2022-12-06T16:39:51.364Z,30.10
2022-12-06T16:42:19.918Z,30.10
2022-12-06T16:44:48.352Z,29.60
2022-12-06T16:47:17.119Z,29.50
2022-12-06T16:49:47.269Z,29.50
2022-12-06T16:52:17.523Z,29.80
2022-12-06T16:54:46.266Z,30.20
2022-12-06T16:57:15.514Z,30.20
2022-12-06T16:59:44.002Z,30.10
2022-12-06T17:02:24.674Z,29.70
2022-12-06T17:04:53.554Z,29.50
2022-12-06T17:07:22.114Z,29.40
2022-12-06T17:09:50.788Z,29.60
2022-12-06T17:12:19.823Z,29.90
2022-12-06T17:14:48.316Z,30.00
2022-12-06T17:17:22.555Z,29.70
2022-12-06T17:19:54.884Z,29.40
2022-12-06T17:22:23.617Z,29.20
2022-12-06T17:24:52.256Z,29.20
2022-12-06T17:27:22.502Z,29.50
2022-12-06T17:29:50.766Z,29.70
2022-12-06T17:32:19.187Z,29.60
2022-12-06T17:34:50.328Z,29.20
2022-12-06T17:37:19.143Z,29.00
2022-12-06T17:39:47.321Z,28.90
2022-12-06T17:42:15.679Z,29.00
2022-12-06T17:44:44.244Z,29.20
2022-12-06T17:47:12.867Z,29.30
2022-12-06T17:49:41.310Z,29.10
2022-12-06T17:52:11.547Z,28.80
2022-12-06T17:54:39.915Z,28.50
2022-12-06T17:57:11.573Z,28.50
2022-12-06T17:59:40.045Z,28.70
2022-12-06T18:02:17.373Z,29.00
2022-12-06T18:04:50.941Z,29.00
2022-12-06T18:07:20.561Z,28.60
2022-12-06T18:09:51.146Z,28.30
2022-12-06T18:12:19.836Z,28.20
2022-12-06T18:14:50.539Z,28.50
2022-12-06T18:17:19.668Z,28.80
2022-12-06T18:19:48.623Z,28.80
2022-12-06T18:22:19.771Z,28.50
2022-12-06T18:24:48.467Z,28.20
2022-12-06T18:27:16.994Z,28.10
2022-12-06T18:29:46.702Z,28.30
2022-12-06T18:32:15.241Z,28.60
2022-12-06T18:34:46.137Z,28.90
2022-12-06T18:37:14.821Z,28.90
2022-12-06T18:39:43.798Z,28.40
2022-12-06T18:42:15.456Z,28.10
2022-12-06T18:44:45.484Z,28.00
2022-12-06T18:47:14.112Z,28.40
2022-12-06T18:49:42.772Z,28.70
2022-12-06T18:52:11.298Z,28.90
2022-12-06T18:54:39.693Z,28.60
2022-12-06T18:57:08.234Z,28.30
2022-12-06T18:59:37.079Z,28.20
2022-12-06T19:02:05.524Z,28.30
2022-12-06T19:04:33.774Z,28.60
2022-12-06T19:07:02.151Z,28.70
2022-12-06T19:09:30.563Z,28.80
2022-12-06T19:11:58.916Z,28.40
2022-12-06T19:14:27.602Z,28.20
2022-12-06T19:17:01.790Z,28.10
2022-12-06T19:19:30.650Z,28.40
2022-12-06T19:21:59.339Z,28.60
2022-12-06T19:24:28.150Z,28.80
2022-12-06T19:26:57.793Z,28.60
2022-12-06T19:29:26.752Z,28.30
2022-12-06T19:31:55.471Z,28.10
2022-12-06T19:34:26.600Z,28.20
2022-12-06T19:36:56.020Z,28.60
2022-12-06T19:39:27.041Z,28.60
2022-12-06T19:41:55.701Z,28.70
2022-12-06T19:44:24.845Z,28.30
2022-12-06T19:46:54.434Z,28.10
2022-12-06T19:49:25.317Z,28.00
2022-12-06T19:51:54.522Z,28.20
2022-12-06T19:54:31.173Z,28.60
2022-12-06T19:57:01.204Z,28.80
2022-12-06T19:59:32.273Z,28.60
2022-12-06T20:02:01.696Z,28.30
2022-12-06T20:04:33.397Z,28.00
2022-12-06T20:07:13.481Z,28.00
2022-12-06T20:09:42.862Z,28.40
2022-12-06T20:12:15.834Z,28.60
2022-12-06T20:14:48.488Z,28.70
2022-12-06T20:17:22.764Z,28.40
2022-12-06T20:19:51.710Z,28.10
2022-12-06T20:22:20.957Z,28.00
2022-12-06T20:24:49.729Z,28.20
2022-12-06T20:27:18.417Z,28.50
2022-12-06T20:29:46.845Z,28.60
2022-12-06T20:32:17.518Z,28.50
2022-12-06T20:34:46.455Z,28.10
2022-12-06T20:37:14.870Z,27.80
2022-12-06T20:39:43.511Z,27.80
2022-12-06T20:42:12.110Z,28.20
2022-12-06T20:44:40.704Z,28.60
2022-12-06T20:47:09.319Z,28.70
2022-12-06T20:49:37.906Z,28.30
2022-12-06T20:52:07.058Z,28.10
2022-12-06T20:54:35.565Z,27.90
2022-12-06T20:57:05.046Z,27.90
2022-12-06T20:59:34.648Z,28.30
2022-12-06T21:02:06.784Z,28.60
2022-12-06T21:04:36.201Z,28.60
2022-12-06T21:07:05.336Z,28.10
2022-12-06T21:09:34.710Z,27.90
2022-12-06T21:12:03.142Z,27.90
2022-12-06T21:14:31.630Z,28.30
2022-12-06T21:17:00.219Z,28.50
2022-12-06T21:19:28.690Z,28.70
2022-12-06T21:21:57.462Z,28.30
2022-12-06T21:24:25.773Z,28.10
2022-12-06T21:26:55.457Z,27.90
2022-12-06T21:29:30.784Z,28.00
2022-12-06T21:32:02.733Z,28.30
2022-12-06T21:34:31.751Z,28.40
2022-12-06T21:37:00.671Z,28.30
2022-12-06T21:39:29.252Z,28.00
2022-12-06T21:41:58.050Z,27.70
2022-12-06T21:44:26.989Z,27.60
2022-12-06T21:46:57.801Z,27.70
2022-12-06T21:49:26.604Z,27.90
2022-12-06T21:52:02.038Z,28.10
2022-12-06T21:54:34.497Z,28.20
2022-12-06T21:57:02.703Z,27.80
2022-12-06T21:59:31.188Z,27.60
2022-12-06T22:01:59.807Z,27.50
2022-12-06T22:04:28.327Z,27.60
2022-12-06T22:06:56.481Z,27.90
2022-12-06T22:09:24.825Z,28.10
2022-12-06T22:11:54.892Z,28.10
2022-12-06T22:14:23.852Z,27.80
2022-12-06T22:16:53.007Z,27.50
2022-12-06T22:19:21.784Z,27.40
2022-12-06T22:21:54.996Z,27.70
2022-12-06T22:24:25.735Z,28.20
2022-12-06T22:26:54.721Z,28.40
2022-12-06T22:29:23.422Z,28.20
2022-12-06T22:31:51.958Z,27.80
2022-12-06T22:34:20.572Z,27.60
2022-12-06T22:36:52.646Z,27.60
2022-12-06T22:39:20.924Z,27.70
2022-12-06T22:41:49.620Z,28.00
2022-12-06T22:44:18.372Z,28.00
2022-12-06T22:46:47.456Z,27.70
2022-12-06T22:49:18.319Z,27.60
2022-12-06T22:51:48.629Z,27.50
2022-12-06T22:54:17.489Z,27.60
2022-12-06T22:56:46.181Z,27.90
2022-12-06T22:59:15.425Z,28.10
2022-12-06T23:01:44.315Z,28.10
2022-12-06T23:04:13.472Z,27.70
2022-12-06T23:06:46.306Z,27.50
2022-12-06T23:09:16.695Z,27.50
2022-12-06T23:11:45.312Z,27.70
2022-12-06T23:14:13.651Z,28.10
2022-12-06T23:16:42.696Z,28.20
2022-12-06T23:19:12.431Z,28.20
2022-12-06T23:21:41.134Z,27.80
2022-12-06T23:24:16.709Z,27.60
2022-12-06T23:26:54.539Z,27.50
2022-12-06T23:29:26.403Z,27.60
2022-12-06T23:31:55.221Z,28.00
2022-12-06T23:34:26.925Z,28.00
2022-12-06T23:36:55.485Z,28.00
2022-12-06T23:39:23.971Z,27.70
2022-12-06T23:41:55.350Z,27.50
2022-12-06T23:44:24.145Z,27.50
2022-12-06T23:46:52.781Z,27.80
2022-12-06T23:49:22.949Z,28.10
2022-12-06T23:51:51.533Z,28.10
2022-12-06T23:54:19.980Z,27.70
2022-12-06T23:56:48.733Z,27.40
2022-12-06T23:59:18.237Z,27.30
